Terminal Aerodrome Forecast
Issued by NWS

Home | Current Version | Previous Version | Text Only | Print | Product List | Glossary Off
Versions: 1 2 3 4 5 6 7 8 9 10 11 12 13

000
FTUS45 KGGW 222300
TAFSDY
TAF
KSDY 222320Z 2300/2324 VRB06KT P6SM VCSH BKN100
     FM230200 10006KT P6SM BKN080
     FM231500 12013KT P6SM SCT100
     FM232000 13015G25KT P6SM SCT110
      AMD LTD TO CLD VIS AND WIND=

USA.gov is the U.S. government's official web portal to all federal, state and local government web resources and services.